Time;durP1;ratioP1;P1;durP2;ratioP2;P2;SDS_P1;SDS_P2;PMS_P1;PMS_P2;Temp;Humidity;BMP_temperature;BMP_pressure;BME280_temperature;BME280_humidity;BME280_pressure;Samples;Min_cycle;Max_cycle;Signal;HPM_P1;HPM_P2
2023/05/01 00:01:30;;;;;;;18.67;14.60;;;13.00;99.90;;;;;;5095814;28;20479;-63
2023/05/01 00:03:56;;;;;;;20.67;14.77;;;12.90;99.90;;;;;;5096044;28;20040;-62
2023/05/01 00:06:24;;;;;;;15.95;14.00;;;12.90;99.90;;;;;;5095819;28;20124;-63
2023/05/01 00:08:50;;;;;;;18.73;15.45;;;12.80;99.90;;;;;;5096035;28;20050;-62
2023/05/01 00:11:17;;;;;;;20.45;14.73;;;12.80;99.90;;;;;;5096180;28;20127;-62
2023/05/01 00:13:44;;;;;;;18.38;15.52;;;12.90;99.90;;;;;;5095949;28;20515;-62
2023/05/01 00:16:11;;;;;;;19.05;15.05;;;12.90;99.90;;;;;;5096152;28;20044;-62
2023/05/01 00:18:38;;;;;;;19.48;15.30;;;12.90;99.90;;;;;;5095999;28;20418;-62
2023/05/01 00:21:05;;;;;;;17.95;15.23;;;12.80;99.90;;;;;;5096063;28;20087;-62
2023/05/01 00:23:32;;;;;;;20.38;15.25;;;12.80;99.90;;;;;;5096166;28;20071;-62
2023/05/01 00:25:58;;;;;;;18.38;16.10;;;12.80;99.90;;;;;;5095916;28;20135;-64
2023/05/01 00:28:25;;;;;;;18.27;15.85;;;12.70;99.90;;;;;;5095650;28;20067;-62
2023/05/01 00:30:52;;;;;;;17.52;15.40;;;12.80;99.90;;;;;;5094282;28;20040;-62
2023/05/01 00:33:19;;;;;;;18.83;15.90;;;12.80;99.90;;;;;;5094378;28;20494;-61
2023/05/01 00:35:46;;;;;;;18.95;15.63;;;12.70;99.90;;;;;;5094276;28;20066;-62
2023/05/01 00:38:13;;;;;;;19.13;16.58;;;12.70;99.90;;;;;;5095626;28;20040;-62
2023/05/01 00:40:40;;;;;;;20.40;17.02;;;12.70;99.90;;;;;;5095351;28;20107;-61
2023/05/01 00:43:06;;;;;;;21.40;16.90;;;12.60;99.90;;;;;;5095336;28;20379;-63
2023/05/01 00:45:33;;;;;;;23.33;18.38;;;12.70;99.90;;;;;;5095390;28;20040;-63
2023/05/01 00:48:00;;;;;;;21.58;17.48;;;12.70;99.90;;;;;;5095153;28;20044;-62
2023/05/01 00:50:28;;;;;;;22.60;17.48;;;12.70;99.90;;;;;;5095349;28;20063;-63
2023/05/01 00:52:55;;;;;;;18.52;16.45;;;12.70;99.90;;;;;;5093803;28;20051;-61
2023/05/01 00:55:22;;;;;;;21.58;17.27;;;12.70;99.90;;;;;;5095433;28;20036;-62
2023/05/01 00:57:49;;;;;;;22.90;16.13;;;12.70;99.90;;;;;;5093814;28;20042;-62
2023/05/01 01:00:18;;;;;;;18.67;15.90;;;12.70;99.90;;;;;;5093531;28;20043;-63
2023/05/01 01:02:44;;;;;;;17.83;15.73;;;12.70;99.90;;;;;;5093285;28;20087;-62
2023/05/01 01:05:13;;;;;;;19.95;16.88;;;12.70;99.90;;;;;;5095298;28;20467;-62
2023/05/01 01:07:40;;;;;;;19.17;16.85;;;12.70;99.90;;;;;;5094690;28;20036;-62
2023/05/01 01:10:07;;;;;;;21.15;17.48;;;12.60;99.90;;;;;;5094647;28;20044;-62
2023/05/01 01:12:34;;;;;;;20.67;16.80;;;12.60;99.90;;;;;;5095021;28;20090;-62
2023/05/01 01:15:01;;;;;;;18.83;16.55;;;12.60;99.90;;;;;;5093580;28;20062;-63
2023/05/01 01:17:28;;;;;;;18.98;16.58;;;12.60;99.90;;;;;;5095019;28;20128;-61
2023/05/01 01:19:55;;;;;;;23.48;16.95;;;12.60;99.90;;;;;;5092932;28;20039;-62
2023/05/01 01:22:22;;;;;;;20.70;16.00;;;12.60;99.90;;;;;;5094694;28;20101;-62
2023/05/01 01:24:49;;;;;;;20.00;16.02;;;12.60;99.90;;;;;;5094427;28;20051;-62
2023/05/01 01:27:16;;;;;;;20.00;16.65;;;12.60;99.90;;;;;;5095156;28;20435;-64
2023/05/01 01:29:43;;;;;;;17.13;15.43;;;12.60;99.90;;;;;;5094847;28;20086;-63
2023/05/01 01:32:09;;;;;;;20.67;17.00;;;12.60;99.90;;;;;;5094422;28;20040;-63
2023/05/01 01:34:36;;;;;;;20.10;16.92;;;12.60;99.90;;;;;;5094861;28;20036;-63
2023/05/01 01:37:03;;;;;;;19.52;16.70;;;12.60;99.90;;;;;;5093614;28;20036;-61
2023/05/01 01:39:30;;;;;;;21.77;17.35;;;12.60;99.90;;;;;;5092894;28;20059;-64
2023/05/01 01:41:58;;;;;;;19.70;16.33;;;12.60;99.90;;;;;;5076754;28;20048;-63
2023/05/01 01:44:24;;;;;;;21.35;17.60;;;12.60;99.90;;;;;;5093212;28;20097;-63
2023/05/01 01:46:51;;;;;;;20.95;16.95;;;12.60;99.90;;;;;;5093241;28;20082;-62
2023/05/01 01:49:18;;;;;;;20.52;16.58;;;12.60;99.90;;;;;;5094155;28;20048;-63
2023/05/01 01:51:46;;;;;;;21.13;15.45;;;12.60;99.90;;;;;;5093293;28;20044;-63
2023/05/01 01:54:13;;;;;;;20.35;15.85;;;12.50;99.90;;;;;;5093903;28;20043;-63
2023/05/01 01:56:40;;;;;;;19.75;16.15;;;12.50;99.90;;;;;;5092829;28;20054;-62
2023/05/01 01:59:08;;;;;;;23.92;17.40;;;12.50;99.90;;;;;;5092616;28;20124;-64
2023/05/01 02:01:34;;;;;;;21.75;16.88;;;12.50;99.90;;;;;;5092189;28;20048;-62
2023/05/01 02:04:02;;;;;;;21.48;16.23;;;12.50;99.90;;;;;;5093284;28;20391;-63
2023/05/01 02:06:30;;;;;;;21.63;16.20;;;12.50;99.90;;;;;;5092784;28;20052;-63
2023/05/01 02:08:57;;;;;;;21.23;17.10;;;12.50;99.90;;;;;;5094059;28;20065;-63
2023/05/01 02:11:24;;;;;;;18.42;16.35;;;12.40;99.90;;;;;;5094095;28;20537;-62
2023/05/01 02:13:51;;;;;;;21.05;16.15;;;12.40;99.90;;;;;;5092764;28;20036;-63
2023/05/01 02:16:19;;;;;;;19.67;16.95;;;12.40;99.90;;;;;;5092630;28;20090;-63
2023/05/01 02:18:46;;;;;;;20.45;16.88;;;12.40;99.90;;;;;;5076275;28;20036;-62
2023/05/01 02:21:12;;;;;;;21.15;17.63;;;12.30;99.90;;;;;;5092352;28;20036;-63
2023/05/01 02:23:39;;;;;;;21.30;17.80;;;12.30;99.90;;;;;;5092466;28;20487;-63
2023/05/01 02:26:06;;;;;;;19.77;17.67;;;12.20;99.90;;;;;;5094186;28;20101;-63
2023/05/01 02:28:33;;;;;;;19.95;17.15;;;12.20;99.90;;;;;;5093803;28;20075;-63
2023/05/01 02:30:59;;;;;;;20.10;17.15;;;12.20;99.90;;;;;;5092836;28;20105;-63
2023/05/01 02:33:27;;;;;;;22.38;17.40;;;12.20;99.90;;;;;;5093903;28;20059;-63
2023/05/01 02:35:53;;;;;;;21.60;17.33;;;12.10;99.90;;;;;;5093978;28;20040;-63
2023/05/01 02:38:21;;;;;;;21.60;19.30;;;12.00;99.90;;;;;;5092487;28;20044;-63
2023/05/01 02:40:48;;;;;;;20.77;17.58;;;12.00;99.90;;;;;;5092119;28;20040;-63
2023/05/01 02:43:14;;;;;;;22.38;18.55;;;11.90;99.90;;;;;;5093318;28;20445;-63
2023/05/01 02:45:42;;;;;;;26.30;19.70;;;11.80;99.90;;;;;;5092221;28;20067;-63
2023/05/01 02:48:10;;;;;;;21.65;18.88;;;11.80;99.90;;;;;;5091978;28;20048;-62
2023/05/01 02:50:39;;;;;;;26.48;19.35;;;11.80;99.90;;;;;;5092284;28;20070;-63
2023/05/01 02:53:06;;;;;;;21.83;17.67;;;11.80;99.90;;;;;;5092041;28;20556;-63
2023/05/01 02:55:42;;;;;;;21.55;18.02;;;11.70;99.90;;;;;;5092368;28;20093;-63
2023/05/01 02:58:08;;;;;;;24.38;19.75;;;11.70;99.90;;;;;;5092459;28;20040;-63
2023/05/01 03:00:35;;;;;;;21.70;19.40;;;11.70;99.90;;;;;;5092081;28;20047;-62
2023/05/01 03:03:02;;;;;;;22.95;18.83;;;11.60;99.90;;;;;;5093035;28;20052;-62
2023/05/01 03:05:29;;;;;;;24.63;19.05;;;11.60;99.90;;;;;;5091853;28;20044;-63
2023/05/01 03:07:56;;;;;;;21.92;18.55;;;11.60;99.90;;;;;;5091829;28;20143;-63
2023/05/01 03:10:22;;;;;;;21.63;19.05;;;11.60;99.90;;;;;;5092046;28;20043;-62
2023/05/01 03:12:49;;;;;;;23.20;19.38;;;11.60;99.90;;;;;;5093682;28;20055;-63
2023/05/01 03:15:17;;;;;;;23.02;19.30;;;11.60;99.90;;;;;;5091423;28;20123;-63
2023/05/01 03:17:44;;;;;;;20.95;18.55;;;11.60;99.90;;;;;;5112973;28;20497;-63
2023/05/01 03:20:11;;;;;;;22.42;17.65;;;11.60;99.90;;;;;;5095593;28;20036;-62
2023/05/01 03:22:39;;;;;;;23.63;19.63;;;11.70;99.90;;;;;;5112744;28;20048;-63
2023/05/01 03:25:06;;;;;;;23.55;18.45;;;11.70;99.90;;;;;;5112631;28;20422;-63
2023/05/01 03:27:33;;;;;;;23.73;19.30;;;11.70;99.90;;;;;;5112299;28;20055;-63
2023/05/01 03:29:59;;;;;;;21.58;18.27;;;11.70;99.90;;;;;;5112046;28;20046;-63
2023/05/01 03:32:28;;;;;;;22.33;17.95;;;11.70;99.90;;;;;;5112533;28;20071;-62
2023/05/01 03:34:56;;;;;;;21.52;18.20;;;11.70;99.90;;;;;;5113630;28;20040;-63
2023/05/01 03:37:24;;;;;;;23.25;18.10;;;11.70;99.90;;;;;;5112322;28;20067;-62
2023/05/01 03:39:51;;;;;;;25.52;18.63;;;11.70;99.90;;;;;;5095484;28;20036;-63
2023/05/01 03:42:47;;;;;;;22.52;17.00;;;11.70;99.90;;;;;;5113935;27;20495;-62
2023/05/01 03:45:19;;;;;;;21.27;17.63;;;11.60;99.90;;;;;;5115574;28;20089;-62
2023/05/01 03:47:46;;;;;;;19.83;17.15;;;11.60;99.90;;;;;;5116127;28;20051;-63
2023/05/01 03:50:14;;;;;;;22.55;18.13;;;11.60;99.90;;;;;;5116094;28;20036;-63
2023/05/01 03:52:43;;;;;;;27.33;18.23;;;11.50;99.90;;;;;;5115346;28;20078;-63
2023/05/01 03:55:09;;;;;;;22.73;18.02;;;11.50;99.90;;;;;;5115343;28;20479;-62
2023/05/01 03:57:40;;;;;;;27.60;18.80;;;11.40;99.90;;;;;;5115602;28;20138;-63
2023/05/01 04:00:10;;;;;;;24.70;18.98;;;11.30;99.90;;;;;;5115275;28;20134;-62
2023/05/01 04:02:45;;;;;;;24.40;19.15;;;11.30;99.90;;;;;;5114983;28;20138;-63
2023/05/01 04:05:17;;;;;;;24.88;18.40;;;11.30;99.90;;;;;;5115484;28;20506;-61
2023/05/01 04:07:48;;;;;;;22.00;18.23;;;11.40;99.90;;;;;;5115749;28;20074;-64
2023/05/01 04:10:16;;;;;;;26.00;19.23;;;11.40;99.90;;;;;;5116399;28;20395;-63
2023/05/01 04:12:50;;;;;;;24.17;18.77;;;11.40;99.90;;;;;;5115563;28;20044;-63
2023/05/01 04:15:17;;;;;;;22.70;18.77;;;11.50;99.90;;;;;;5115508;28;20445;-62
2023/05/01 04:17:44;;;;;;;27.83;19.90;;;11.50;99.90;;;;;;5114987;28;20036;-63
2023/05/01 04:20:11;;;;;;;24.63;20.13;;;11.60;99.90;;;;;;5114909;28;20126;-63
2023/05/01 04:22:38;;;;;;;25.30;19.05;;;11.60;99.90;;;;;;5115160;28;20402;-62
2023/05/01 04:25:05;;;;;;;24.77;18.52;;;11.60;99.90;;;;;;5114693;28;20101;-63
2023/05/01 04:27:31;;;;;;;22.67;18.45;;;11.70;99.90;;;;;;5115219;28;20543;-62
2023/05/01 04:29:58;;;;;;;24.08;18.17;;;11.70;99.90;;;;;;5116318;28;20043;-63
2023/05/01 04:32:27;;;;;;;24.75;17.52;;;11.70;99.90;;;;;;5115064;28;20051;-62
2023/05/01 04:34:54;;;;;;;24.35;16.27;;;11.80;99.90;;;;;;5114682;28;20047;-62
2023/05/01 04:37:21;;;;;;;19.67;13.90;;;11.80;99.90;;;;;;5114764;28;20123;-63
2023/05/01 04:39:49;;;;;;;15.88;11.85;;;11.80;99.90;;;;;;5114311;28;20490;-63
2023/05/01 04:42:17;;;;;;;19.73;11.75;;;11.70;99.90;;;;;;5115088;28;20040;-63
2023/05/01 04:44:46;;;;;;;16.52;12.27;;;11.60;99.90;;;;;;5114545;28;20051;-65
2023/05/01 04:47:13;;;;;;;15.07;11.43;;;11.60;99.90;;;;;;5114716;28;20108;-63
2023/05/01 04:49:40;;;;;;;16.58;12.50;;;11.60;99.90;;;;;;5115816;28;20048;-61
2023/05/01 04:52:06;;;;;;;17.02;12.07;;;11.60;99.90;;;;;;5114827;28;20048;-62
2023/05/01 04:54:59;;;;;;;15.63;11.98;;;11.70;99.90;;;;;;5113183;28;20047;-62
2023/05/01 04:57:28;;;;;;;19.90;12.85;;;11.70;99.90;;;;;;5114875;28;20048;-61
2023/05/01 04:59:55;;;;;;;19.50;12.30;;;11.70;99.90;;;;;;5114332;28;20036;-62
2023/05/01 05:02:23;;;;;;;16.40;11.82;;;11.70;99.90;;;;;;5114225;28;20043;-62
2023/05/01 05:04:52;;;;;;;19.52;12.93;;;11.80;99.90;;;;;;5114515;28;20478;-62
2023/05/01 05:07:20;;;;;;;17.45;11.93;;;11.80;99.90;;;;;;5114214;28;20063;-61
2023/05/01 05:10:13;;;;;;;17.27;11.38;;;11.80;99.90;;;;;;5113856;28;20048;-61
2023/05/01 05:12:45;;;;;;;14.10;10.77;;;11.80;99.90;;;;;;5114308;28;20055;-62
2023/05/01 05:15:12;;;;;;;12.90;9.18;;;11.80;99.90;;;;;;5115226;28;20040;-63
2023/05/01 05:17:39;;;;;;;14.00;8.13;;;11.80;99.90;;;;;;5114004;28;20042;-62
2023/05/01 05:20:06;;;;;;;12.80;8.55;;;11.90;99.90;;;;;;5115544;28;20067;-62
2023/05/01 05:22:33;;;;;;;13.65;8.52;;;11.90;99.90;;;;;;5115122;28;20044;-63
2023/05/01 05:25:17;;;;;;;12.90;8.10;;;11.90;99.90;;;;;;5113663;28;20063;-63
2023/05/01 05:27:44;;;;;;;10.73;7.40;;;11.90;99.90;;;;;;5113986;28;20054;-63
2023/05/01 05:30:10;;;;;;;12.25;8.10;;;11.90;99.90;;;;;;5114056;28;20040;-63
2023/05/01 05:32:37;;;;;;;17.13;8.27;;;12.00;99.90;;;;;;5113546;28;20088;-63
2023/05/01 05:35:05;;;;;;;15.85;7.65;;;12.00;99.90;;;;;;5113416;28;20456;-62
2023/05/01 05:37:32;;;;;;;12.63;7.63;;;12.00;99.90;;;;;;5114083;28;20085;-62
2023/05/01 05:39:59;;;;;;;13.98;7.13;;;12.00;99.90;;;;;;5113316;28;20046;-62
2023/05/01 05:42:28;;;;;;;13.07;7.20;;;12.00;99.90;;;;;;5113947;28;20070;-61
2023/05/01 05:45:02;;;;;;;11.27;7.20;;;12.00;99.90;;;;;;5113963;28;20047;-63
2023/05/01 05:47:29;;;;;;;11.55;6.55;;;12.00;99.90;;;;;;5114463;28;20402;-61
2023/05/01 05:49:56;;;;;;;13.00;6.80;;;12.00;99.90;;;;;;5113268;28;20040;-63
2023/05/01 05:52:24;;;;;;;13.73;7.35;;;12.00;99.90;;;;;;5113688;28;20126;-62
2023/05/01 05:54:51;;;;;;;10.23;5.88;;;12.00;99.90;;;;;;5114894;28;20063;-62
2023/05/01 05:57:17;;;;;;;12.35;5.88;;;12.00;99.90;;;;;;5114463;28;20050;-63
2023/05/01 05:59:48;;;;;;;10.75;5.63;;;12.00;99.90;;;;;;5113335;28;20043;-62
2023/05/01 06:02:19;;;;;;;11.05;5.43;;;12.10;99.90;;;;;;5113039;28;20401;-63
2023/05/01 06:04:46;;;;;;;10.30;5.03;;;12.10;99.90;;;;;;5112805;28;20051;-62
2023/05/01 06:07:16;;;;;;;8.43;4.90;;;12.10;99.90;;;;;;5113161;28;20386;-62
2023/05/01 06:09:44;;;;;;;13.52;4.40;;;12.10;99.90;;;;;;5112731;28;20040;-62
2023/05/01 06:12:11;;;;;;;9.45;4.82;;;12.10;99.90;;;;;;5112928;28;20046;-62
2023/05/01 06:14:39;;;;;;;9.32;4.15;;;12.00;99.90;;;;;;5112850;28;20440;-62
2023/05/01 06:17:06;;;;;;;10.80;3.58;;;12.00;99.90;;;;;;5113233;28;20096;-63
2023/05/01 06:19:33;;;;;;;11.13;4.10;;;12.00;99.90;;;;;;5112729;28;20044;-63
2023/05/01 06:22:10;;;;;;;8.60;4.03;;;12.00;99.90;;;;;;5112724;28;20031;-63
2023/05/01 06:24:47;;;;;;;8.43;3.70;;;12.00;99.90;;;;;;5113286;28;20058;-62
2023/05/01 06:27:14;;;;;;;9.98;4.40;;;12.00;99.90;;;;;;5113198;28;20074;-62
2023/05/01 06:29:41;;;;;;;10.02;4.93;;;12.10;99.90;;;;;;5112501;28;20040;-62
2023/05/01 06:32:08;;;;;;;12.38;5.60;;;12.10;99.90;;;;;;5114028;28;20047;-62
2023/05/01 06:34:35;;;;;;;11.98;5.63;;;12.10;99.90;;;;;;5113051;28;20066;-63
2023/05/01 06:37:04;;;;;;;12.65;5.57;;;12.10;99.90;;;;;;5114744;28;20165;-63
2023/05/01 06:39:31;;;;;;;12.23;6.03;;;12.10;99.90;;;;;;5112343;28;20035;-62
2023/05/01 06:41:58;;;;;;;11.68;5.70;;;12.20;99.90;;;;;;5112926;28;20051;-62
2023/05/01 06:44:37;;;;;;;9.45;5.50;;;12.20;99.90;;;;;;5113215;28;20091;-62
2023/05/01 06:47:04;;;;;;;9.43;4.97;;;12.20;99.90;;;;;;5112496;28;20529;-62
2023/05/01 06:49:32;;;;;;;10.00;4.90;;;12.30;99.90;;;;;;5112964;28;20466;-62
2023/05/01 06:51:59;;;;;;;12.40;5.15;;;12.30;99.90;;;;;;5112872;28;20035;-61
2023/05/01 06:54:26;;;;;;;12.80;5.18;;;12.30;99.90;;;;;;5095537;28;20566;-61
2023/05/01 06:56:53;;;;;;;13.38;4.88;;;12.30;99.90;;;;;;5112468;28;20509;-61
2023/05/01 06:59:20;;;;;;;11.65;4.75;;;12.40;99.90;;;;;;5112260;28;20032;-61
2023/05/01 07:01:46;;;;;;;12.80;5.45;;;12.40;99.90;;;;;;5112311;28;20048;-62
2023/05/01 07:04:13;;;;;;;14.95;5.05;;;12.40;99.90;;;;;;5113657;28;20047;-60
2023/05/01 07:06:40;;;;;;;12.68;5.30;;;12.50;99.90;;;;;;5113644;28;20497;-61
2023/05/01 07:09:07;;;;;;;13.27;4.80;;;12.50;99.90;;;;;;5113303;28;20122;-61
2023/05/01 07:11:34;;;;;;;9.52;5.07;;;12.60;99.90;;;;;;5113506;28;20040;-62
2023/05/01 07:14:00;;;;;;;12.75;5.20;;;12.70;99.90;;;;;;5112708;28;20110;-62
2023/05/01 07:16:27;;;;;;;11.05;4.85;;;12.70;99.90;;;;;;5114408;28;20040;-62
2023/05/01 07:18:54;;;;;;;15.88;5.65;;;12.80;99.90;;;;;;5117526;28;20032;-61
2023/05/01 07:21:21;;;;;;;14.15;5.40;;;12.90;99.90;;;;;;5117181;28;20047;-63
2023/05/01 07:23:48;;;;;;;9.70;4.68;;;12.90;99.90;;;;;;5117480;28;20097;-62
2023/05/01 07:26:14;;;;;;;11.30;4.45;;;13.10;99.90;;;;;;5116252;28;20048;-62
2023/05/01 07:28:41;;;;;;;12.75;4.40;;;13.20;99.90;;;;;;5117164;28;20092;-63
2023/05/01 07:31:08;;;;;;;13.70;5.10;;;13.00;99.90;;;;;;5117208;28;20035;-62
2023/05/01 07:33:35;;;;;;;10.98;5.00;;;13.00;99.90;;;;;;5117455;28;20039;-62
2023/05/01 07:36:03;;;;;;;12.85;4.63;;;13.10;99.90;;;;;;5117008;28;20051;-62
2023/05/01 07:38:30;;;;;;;12.20;5.18;;;13.10;99.90;;;;;;5117210;28;20062;-62
2023/05/01 07:40:56;;;;;;;11.05;4.60;;;13.10;99.90;;;;;;5117367;28;20043;-62
2023/05/01 07:43:23;;;;;;;13.55;5.43;;;13.20;99.90;;;;;;5116880;28;20085;-62
2023/05/01 07:45:50;;;;;;;10.57;5.10;;;13.20;99.90;;;;;;5117278;28;20047;-62
2023/05/01 07:48:17;;;;;;;14.85;4.93;;;13.20;99.90;;;;;;5116792;28;20100;-63
2023/05/01 07:50:43;;;;;;;12.90;5.03;;;13.30;99.90;;;;;;5116924;28;20047;-62
2023/05/01 07:53:10;;;;;;;14.68;5.60;;;13.30;99.90;;;;;;5117098;28;20063;-62
2023/05/01 07:55:37;;;;;;;11.55;5.63;;;13.20;99.90;;;;;;5116686;28;20046;-62
2023/05/01 07:58:05;;;;;;;10.88;4.95;;;13.20;99.90;;;;;;5116792;27;20084;-63
2023/05/01 08:00:32;;;;;;;10.75;4.53;;;13.20;99.90;;;;;;5116671;28;20063;-62
2023/05/01 08:02:59;;;;;;;10.85;4.60;;;13.20;99.90;;;;;;5116646;28;20474;-61
2023/05/01 08:05:26;;;;;;;13.45;5.50;;;13.20;99.90;;;;;;5116455;28;20398;-62
2023/05/01 08:07:52;;;;;;;12.80;4.70;;;13.10;99.90;;;;;;5114907;28;20555;-62
2023/05/01 08:10:19;;;;;;;11.95;4.88;;;13.20;99.90;;;;;;5116007;28;20051;-62
2023/05/01 08:12:46;;;;;;;11.60;5.05;;;13.30;99.90;;;;;;5096412;28;20050;-62
2023/05/01 08:15:13;;;;;;;11.10;4.60;;;13.30;99.90;;;;;;5095631;28;20044;-63
2023/05/01 08:17:40;;;;;;;12.57;4.85;;;13.40;99.90;;;;;;5096522;28;20036;-62
2023/05/01 08:20:07;;;;;;;12.15;4.80;;;13.40;99.90;;;;;;5095748;28;20514;-61
2023/05/01 08:22:33;;;;;;;12.07;5.25;;;13.50;99.90;;;;;;5096187;28;20036;-60
2023/05/01 08:25:00;;;;;;;13.35;5.35;;;13.40;99.90;;;;;;5095814;28;20047;-61
2023/05/01 08:27:27;;;;;;;14.15;4.70;;;13.40;99.90;;;;;;5095774;28;20078;-61
2023/05/01 08:29:54;;;;;;;14.20;5.25;;;13.40;99.90;;;;;;5095363;28;20039;-62
2023/05/01 08:32:21;;;;;;;14.27;5.13;;;13.40;99.90;;;;;;5095810;28;20036;-61
2023/05/01 08:34:48;;;;;;;11.27;4.75;;;13.50;99.90;;;;;;5095996;28;20063;-62
2023/05/01 08:37:17;;;;;;;11.20;4.85;;;13.40;99.90;;;;;;5094257;28;20134;-62
2023/05/01 08:39:44;;;;;;;9.90;4.75;;;13.50;99.90;;;;;;5095490;28;20032;-62
2023/05/01 08:42:12;;;;;;;13.93;4.47;;;13.50;99.90;;;;;;5095675;28;20064;-62
2023/05/01 08:44:39;;;;;;;12.10;4.68;;;13.50;99.90;;;;;;5095387;28;20102;-62
2023/05/01 08:47:06;;;;;;;12.05;4.57;;;13.60;99.90;;;;;;5095699;28;20059;-62
2023/05/01 08:49:33;;;;;;;12.20;4.30;;;13.60;99.90;;;;;;5095754;28;20035;-62
2023/05/01 08:52:00;;;;;;;12.82;4.22;;;13.70;99.90;;;;;;5095291;28;20067;-61
2023/05/01 08:54:27;;;;;;;10.38;4.65;;;13.80;99.90;;;;;;5095632;28;20044;-62
2023/05/01 08:56:54;;;;;;;13.25;4.90;;;14.00;99.90;;;;;;5095278;28;20040;-61
2023/05/01 08:59:20;;;;;;;13.38;4.90;;;14.10;99.90;;;;;;5095172;28;20040;-61
2023/05/01 09:01:47;;;;;;;11.10;4.15;;;14.30;99.90;;;;;;5094884;28;20055;-63
2023/05/01 09:04:14;;;;;;;12.77;4.60;;;14.40;99.90;;;;;;5094966;28;20044;-61
2023/05/01 09:06:43;;;;;;;8.02;3.97;;;14.50;99.90;;;;;;5095474;28;20063;-62
2023/05/01 09:09:10;;;;;;;11.70;4.28;;;14.60;99.90;;;;;;5095462;28;20064;-61
2023/05/01 09:11:37;;;;;;;10.98;4.30;;;14.70;99.90;;;;;;5094546;28;20483;-61
2023/05/01 09:14:04;;;;;;;9.60;4.05;;;14.90;99.90;;;;;;5094740;28;20495;-62
2023/05/01 09:16:31;;;;;;;11.50;4.25;;;15.00;99.90;;;;;;5094591;28;20040;-63
2023/05/01 09:18:58;;;;;;;11.27;3.63;;;15.10;99.90;;;;;;5094699;28;20066;-62
2023/05/01 09:21:25;;;;;;;9.20;4.07;;;15.20;99.90;;;;;;5095085;28;20060;-62
2023/05/01 09:23:52;;;;;;;10.05;4.00;;;15.20;99.90;;;;;;5095047;28;20044;-62
2023/05/01 09:26:20;;;;;;;12.40;4.22;;;15.00;99.90;;;;;;5094464;28;20094;-62
2023/05/01 09:28:47;;;;;;;10.75;4.07;;;15.00;99.90;;;;;;5094734;28;20040;-62
2023/05/01 09:31:14;;;;;;;11.55;3.78;;;15.00;99.90;;;;;;5094718;28;20391;-62
2023/05/01 09:33:41;;;;;;;12.68;4.25;;;15.00;99.90;;;;;;5094835;28;20087;-62
2023/05/01 09:36:08;;;;;;;11.32;3.80;;;15.10;99.90;;;;;;5094832;28;20570;-62
2023/05/01 09:38:35;;;;;;;8.23;3.50;;;15.20;99.90;;;;;;5094916;28;20410;-62
2023/05/01 09:41:01;;;;;;;8.80;4.00;;;15.40;99.90;;;;;;5093995;28;20036;-62
2023/05/01 09:43:28;;;;;;;11.23;4.03;;;15.20;99.90;;;;;;5094649;28;20041;-61
2023/05/01 09:45:56;;;;;;;13.00;4.15;;;15.40;99.90;;;;;;5094550;28;20067;-62
2023/05/01 09:48:22;;;;;;;9.85;3.65;;;15.60;99.90;;;;;;5094588;28;20055;-62
2023/05/01 09:50:49;;;;;;;10.82;3.50;;;15.70;99.90;;;;;;5094048;28;20048;-62
2023/05/01 09:53:16;;;;;;;11.70;3.80;;;15.60;99.90;;;;;;5094831;28;20048;-62
2023/05/01 09:55:43;;;;;;;10.02;3.70;;;15.60;99.90;;;;;;5093986;28;20459;-61
2023/05/01 09:58:09;;;;;;;11.95;4.53;;;15.60;99.90;;;;;;5110077;28;20051;-61
2023/05/01 10:00:36;;;;;;;9.52;3.65;;;15.60;99.90;;;;;;5109449;28;20040;-61
2023/05/01 10:03:03;;;;;;;11.57;3.80;;;15.50;99.90;;;;;;5092569;28;20495;-61
2023/05/01 10:05:32;;;;;;;7.70;3.55;;;15.50;99.90;;;;;;5094265;28;20032;-61
2023/05/01 10:07:59;;;;;;;12.65;4.28;;;15.50;99.90;;;;;;5094295;28;20540;-62
2023/05/01 10:10:26;;;;;;;11.35;4.40;;;15.40;99.90;;;;;;5100430;28;20032;-61
2023/05/01 10:12:53;;;;;;;12.48;4.28;;;15.40;99.90;;;;;;5114587;28;20039;-60
2023/05/01 10:15:20;;;;;;;8.00;3.60;;;15.30;99.90;;;;;;5114026;28;20031;-66
2023/05/01 10:17:52;;;;;;;11.90;4.53;;;15.40;99.90;;;;;;5114814;28;20462;-62
2023/05/01 10:20:19;;;;;;;10.55;4.22;;;15.60;99.90;;;;;;5114883;28;20142;-62
2023/05/01 10:22:47;;;;;;;12.18;4.60;;;15.70;99.90;;;;;;5114177;28;20106;-62
2023/05/01 10:25:15;;;;;;;11.88;4.00;;;15.90;99.90;;;;;;5114240;28;20036;-61
2023/05/01 10:27:42;;;;;;;12.60;4.32;;;16.00;99.90;;;;;;5114252;28;20050;-61
2023/05/01 10:30:09;;;;;;;9.63;4.07;;;16.00;99.90;;;;;;5112998;28;20467;-61
2023/05/01 10:32:36;;;;;;;11.98;3.65;;;15.90;99.90;;;;;;5113040;28;20093;-61
2023/05/01 10:35:03;;;;;;;9.65;3.65;;;16.00;99.90;;;;;;5113131;28;20065;-61
2023/05/01 10:37:29;;;;;;;11.13;4.75;;;16.00;99.90;;;;;;5113146;28;20032;-61
2023/05/01 10:39:57;;;;;;;12.02;3.90;;;15.90;99.90;;;;;;5097302;28;20126;-62
2023/05/01 10:42:25;;;;;;;10.48;4.00;;;15.90;99.90;;;;;;5113359;28;20490;-63
2023/05/01 10:44:51;;;;;;;9.13;3.95;;;16.10;99.90;;;;;;5097747;28;20437;-62
2023/05/01 10:47:18;;;;;;;8.52;3.45;;;16.30;99.90;;;;;;5093361;28;20040;-62
2023/05/01 10:49:45;;;;;;;11.13;3.75;;;16.40;99.90;;;;;;5112475;28;20109;-63
2023/05/01 10:52:12;;;;;;;10.15;3.40;;;16.50;99.90;;;;;;5114260;28;20042;-63
2023/05/01 10:54:39;;;;;;;8.15;3.05;;;16.50;99.90;;;;;;5111715;28;20064;-63
2023/05/01 10:57:06;;;;;;;8.88;3.20;;;16.60;99.90;;;;;;5097887;28;20103;-64
2023/05/01 10:59:33;;;;;;;7.45;3.33;;;16.50;99.90;;;;;;5095842;28;20123;-63
2023/05/01 11:01:59;;;;;;;9.90;3.40;;;16.60;99.90;;;;;;5097531;28;20102;-63
2023/05/01 11:04:26;;;;;;;8.25;3.47;;;16.80;99.90;;;;;;5098895;28;20422;-63
2023/05/01 11:06:53;;;;;;;9.98;3.47;;;16.70;99.90;;;;;;5117219;28;20050;-63
2023/05/01 11:09:20;;;;;;;6.55;2.67;;;16.80;99.90;;;;;;5116948;28;20055;-63
2023/05/01 11:11:48;;;;;;;7.97;3.00;;;16.70;99.90;;;;;;5116939;28;20040;-62
2023/05/01 11:14:15;;;;;;;7.15;3.00;;;16.50;99.90;;;;;;5116741;28;20071;-63
2023/05/01 11:16:42;;;;;;;7.55;2.67;;;16.50;99.90;;;;;;5116865;27;20156;-62
2023/05/01 11:19:09;;;;;;;6.90;2.50;;;16.50;99.90;;;;;;5115593;28;20036;-63
2023/05/01 11:21:36;;;;;;;7.20;2.42;;;16.50;99.90;;;;;;5116685;28;20079;-63
2023/05/01 11:24:02;;;;;;;5.32;2.40;;;16.70;99.90;;;;;;5115443;28;20459;-60
2023/05/01 11:26:29;;;;;;;8.43;3.30;;;16.80;99.90;;;;;;5116698;27;20398;-63
2023/05/01 11:28:58;;;;;;;9.30;2.72;;;16.70;99.90;;;;;;5116730;28;20043;-63
2023/05/01 11:31:25;;;;;;;6.18;3.08;;;16.70;99.90;;;;;;5111823;28;20120;-63
2023/05/01 11:33:52;;;;;;;6.53;2.65;;;16.80;99.90;;;;;;5116586;28;20040;-62
2023/05/01 11:36:18;;;;;;;4.40;2.05;;;17.00;99.90;;;;;;5116759;28;20563;-63
2023/05/01 11:38:45;;;;;;;7.32;2.40;;;17.10;99.90;;;;;;5116528;28;20059;-63
2023/05/01 11:41:12;;;;;;;9.63;2.85;;;17.20;99.90;;;;;;5116206;28;20485;-63
2023/05/01 11:43:38;;;;;;;5.35;2.20;;;17.20;99.90;;;;;;5113037;28;20114;-62
2023/05/01 11:46:05;;;;;;;5.65;2.35;;;17.30;99.90;;;;;;5116344;28;20092;-63
2023/05/01 11:48:32;;;;;;;7.53;2.58;;;17.30;99.90;;;;;;5115825;28;20039;-63
2023/05/01 11:50:59;;;;;;;6.55;2.53;;;17.20;99.90;;;;;;5116182;28;20042;-62
2023/05/01 11:53:26;;;;;;;5.68;2.55;;;17.30;99.90;;;;;;5116293;28;20469;-63
2023/05/01 11:55:53;;;;;;;5.93;2.40;;;17.20;99.90;;;;;;5116078;27;20550;-63
2023/05/01 11:58:20;;;;;;;5.13;2.05;;;17.40;99.90;;;;;;5116033;27;20379;-63
2023/05/01 12:00:46;;;;;;;5.15;1.73;;;17.60;99.90;;;;;;5114671;28;20065;-62
2023/05/01 12:03:13;;;;;;;6.32;1.95;;;17.50;98.50;;;;;;5115884;28;20127;-62
2023/05/01 12:05:41;;;;;;;5.22;2.08;;;17.50;97.90;;;;;;5100856;28;20127;-61
2023/05/01 12:08:08;;;;;;;4.18;1.98;;;17.50;98.40;;;;;;5096471;28;20071;-62
2023/05/01 12:10:35;;;;;;;5.03;1.90;;;17.50;98.10;;;;;;5097211;28;20048;-61
2023/05/01 12:13:02;;;;;;;5.35;2.03;;;17.70;98.70;;;;;;5114550;28;20122;-62
2023/05/01 12:15:29;;;;;;;3.85;1.73;;;17.90;98.40;;;;;;5115712;28;20032;-62
2023/05/01 12:17:56;;;;;;;4.30;2.05;;;18.10;98.90;;;;;;5115668;28;20087;-61
2023/05/01 12:20:23;;;;;;;4.88;1.90;;;18.20;98.30;;;;;;5115532;28;20035;-62
2023/05/01 12:22:50;;;;;;;5.78;1.88;;;18.20;98.00;;;;;;5106381;28;20578;-61
2023/05/01 12:25:18;;;;;;;4.72;1.92;;;18.20;97.70;;;;;;5107964;28;20068;-62
2023/05/01 12:27:45;;;;;;;4.43;1.90;;;18.00;98.00;;;;;;5096082;28;20098;-62
2023/05/01 12:30:11;;;;;;;5.32;2.00;;;17.90;97.90;;;;;;5096040;28;20352;-62
2023/05/01 12:32:38;;;;;;;4.80;1.80;;;17.80;98.20;;;;;;5095817;28;20048;-62
2023/05/01 12:35:05;;;;;;;5.70;2.25;;;17.80;98.20;;;;;;5095920;28;20047;-62
2023/05/01 12:37:32;;;;;;;3.70;1.80;;;17.90;98.10;;;;;;5095690;28;20040;-62